createdAt,value
2023-02-21T00:00:11.298Z,42.90
2023-02-21T00:03:21.796Z,55.20
2023-02-21T00:06:08.925Z,42.50
2023-02-21T00:08:56.184Z,48.40
2023-02-21T00:11:43.133Z,49.80
2023-02-21T00:14:29.827Z,52.20
2023-02-21T00:17:16.512Z,39.80
2023-02-21T00:20:03.381Z,33.40
2023-02-21T00:22:50.268Z,34.00
2023-02-21T00:25:36.773Z,32.30
2023-02-21T00:28:23.514Z,36.50
2023-02-21T00:31:10.153Z,26.50
2023-02-21T00:33:57.391Z,31.50
2023-02-21T00:36:44.251Z,28.30
2023-02-21T00:39:30.869Z,30.90
2023-02-21T00:42:17.750Z,27.40
2023-02-21T00:45:04.564Z,30.70
2023-02-21T00:47:51.175Z,28.40
2023-02-21T00:50:38.108Z,24.80
2023-02-21T00:53:24.959Z,27.90
2023-02-21T00:56:11.675Z,22.70
2023-02-21T00:58:58.410Z,24.70
2023-02-21T01:01:45.527Z,22.70
2023-02-21T01:04:32.412Z,28.20
2023-02-21T01:07:19.208Z,26.10
2023-02-21T01:10:06.022Z,21.60
2023-02-21T01:12:52.917Z,23.90
2023-02-21T01:15:40.064Z,24.10
2023-02-21T01:18:26.963Z,29.60
2023-02-21T01:21:14.121Z,27.80
2023-02-21T01:24:01.385Z,27.10
2023-02-21T01:26:48.722Z,29.10
2023-02-21T01:29:37.668Z,32.50
2023-02-21T01:32:24.587Z,27.20
2023-02-21T01:35:11.405Z,32.20
2023-02-21T01:38:00.669Z,30.60
2023-02-21T01:40:47.315Z,27.30
2023-02-21T01:43:44.126Z,30.40
2023-02-21T01:46:38.984Z,22.80
2023-02-21T01:49:35.812Z,24.00
2023-02-21T01:52:23.982Z,14.50
2023-02-21T01:55:13.809Z,12.20
2023-02-21T01:58:04.797Z,9.60
2023-02-21T02:00:52.196Z,7.50
2023-02-21T02:03:40.534Z,7.00
2023-02-21T02:06:33.800Z,7.20
2023-02-21T02:09:40.915Z,5.60
2023-02-21T02:12:35.952Z,6.50
2023-02-21T02:15:22.511Z,4.90
2023-02-21T02:18:09.177Z,7.00
2023-02-21T02:21:15.420Z,4.90
2023-02-21T02:24:15.574Z,6.60
2023-02-21T02:27:11.707Z,6.00
2023-02-21T02:30:11.729Z,6.00
2023-02-21T02:33:22.184Z,7.00
2023-02-21T02:36:13.088Z,5.60
2023-02-21T02:39:11.586Z,4.60
2023-02-21T02:41:56.568Z,6.10
2023-02-21T02:44:40.358Z,9.10
2023-02-21T02:49:46.287Z,5.20
2023-02-21T02:52:14.383Z,6.40
2023-02-21T02:54:42.494Z,4.60
2023-02-21T02:57:13.368Z,4.50
2023-02-21T02:59:46.989Z,5.20
2023-02-21T03:02:43.982Z,4.70
2023-02-21T03:05:21.137Z,5.30
2023-02-21T03:08:09.004Z,4.80
2023-02-21T03:11:06.309Z,5.60
2023-02-21T03:14:06.288Z,6.50
2023-02-21T03:17:00.449Z,6.40
2023-02-21T03:19:39.116Z,8.40
2023-02-21T03:22:16.186Z,6.50
2023-02-21T03:24:48.571Z,5.40
2023-02-21T03:27:20.114Z,5.30
2023-02-21T03:30:03.148Z,5.90
2023-02-21T03:32:51.864Z,5.30
2023-02-21T03:35:22.206Z,7.20
2023-02-21T03:37:53.543Z,7.00
2023-02-21T03:40:33.674Z,5.70
2023-02-21T03:43:07.392Z,5.70
2023-02-21T03:45:45.413Z,6.80
2023-02-21T03:48:31.080Z,6.30
2023-02-21T03:51:03.720Z,6.50
2023-02-21T03:53:36.256Z,7.90
2023-02-21T03:56:05.506Z,6.30
2023-02-21T03:58:47.995Z,5.50
2023-02-21T04:01:16.803Z,6.70
2023-02-21T04:03:45.201Z,5.90
2023-02-21T04:06:13.384Z,3.70
2023-02-21T04:08:42.025Z,6.90
2023-02-21T04:11:10.318Z,7.40
2023-02-21T04:13:38.463Z,3.70
2023-02-21T04:16:07.000Z,5.30
2023-02-21T04:18:37.869Z,5.00
2023-02-21T04:21:08.367Z,6.00
2023-02-21T04:23:36.788Z,4.60
2023-02-21T04:26:05.914Z,4.80
2023-02-21T04:28:40.772Z,7.30
2023-02-21T04:31:09.239Z,4.20
2023-02-21T04:33:37.657Z,4.80
2023-02-21T04:36:06.428Z,4.20
2023-02-21T04:38:41.516Z,5.10
2023-02-21T04:41:09.683Z,6.00
2023-02-21T04:43:38.496Z,5.50
2023-02-21T04:46:07.307Z,6.60
2023-02-21T04:48:35.489Z,6.10
2023-02-21T04:51:15.105Z,7.90
2023-02-21T04:53:46.839Z,5.10
2023-02-21T04:56:15.966Z,5.50
2023-02-21T04:58:45.606Z,6.80
2023-02-21T05:01:16.537Z,7.40
2023-02-21T05:03:45.207Z,4.50
2023-02-21T05:06:25.404Z,5.40
2023-02-21T05:08:53.596Z,5.80
2023-02-21T05:11:23.151Z,6.60
2023-02-21T05:13:51.616Z,5.30
2023-02-21T05:16:20.666Z,5.70
2023-02-21T05:18:49.401Z,6.00
2023-02-21T05:21:19.338Z,5.90
2023-02-21T05:23:56.857Z,5.60
2023-02-21T05:26:31.484Z,4.60
2023-02-21T05:28:59.876Z,6.40
2023-02-21T05:31:28.614Z,4.70
2023-02-21T05:33:58.077Z,5.80
2023-02-21T05:36:27.014Z,7.40
2023-02-21T05:38:56.216Z,4.30
2023-02-21T05:41:24.651Z,9.10
2023-02-21T05:43:53.768Z,6.40
2023-02-21T05:46:29.449Z,5.10
2023-02-21T05:48:59.877Z,6.70
2023-02-21T05:51:34.357Z,5.80
2023-02-21T05:54:02.557Z,6.20
2023-02-21T05:56:31.065Z,6.30
2023-02-21T05:58:59.190Z,4.70
2023-02-21T06:01:27.334Z,6.00
2023-02-21T06:03:55.470Z,6.40
2023-02-21T06:06:23.734Z,5.30
2023-02-21T06:08:52.064Z,4.50
2023-02-21T06:11:26.242Z,6.30
2023-02-21T06:13:57.198Z,4.70
2023-02-21T06:16:26.498Z,6.20
2023-02-21T06:18:57.036Z,6.80
2023-02-21T06:21:25.193Z,5.10
2023-02-21T06:23:53.468Z,5.80
2023-02-21T06:26:23.032Z,4.80
2023-02-21T06:28:51.660Z,4.80
2023-02-21T06:31:21.344Z,7.10
2023-02-21T06:33:50.835Z,7.90
2023-02-21T06:36:23.960Z,7.10
2023-02-21T06:41:28.405Z,4.90
2023-02-21T06:43:58.399Z,3.90
2023-02-21T06:46:30.117Z,6.30
2023-02-21T06:48:58.942Z,4.20
2023-02-21T06:51:30.138Z,6.20
2023-02-21T06:53:58.647Z,4.20
2023-02-21T06:56:27.271Z,6.00
2023-02-21T06:58:55.627Z,6.20
2023-02-21T07:01:28.058Z,5.60
2023-02-21T07:03:58.344Z,8.50
2023-02-21T07:06:29.448Z,6.60
2023-02-21T07:08:57.896Z,7.60
2023-02-21T07:11:26.042Z,4.50
2023-02-21T07:13:56.932Z,4.80
2023-02-21T07:16:26.806Z,5.90
2023-02-21T07:18:55.155Z,5.90
2023-02-21T07:21:23.642Z,3.50
2023-02-21T07:23:51.714Z,4.80
2023-02-21T07:26:20.276Z,4.60
2023-02-21T07:28:49.541Z,5.10
2023-02-21T07:31:19.598Z,4.60
2023-02-21T07:33:48.209Z,5.60
2023-02-21T07:36:16.922Z,8.60
2023-02-21T07:38:45.086Z,5.20
2023-02-21T07:41:15.816Z,6.10
2023-02-21T07:43:44.296Z,6.30
2023-02-21T07:46:15.087Z,5.10
2023-02-21T07:48:43.374Z,4.10
2023-02-21T07:51:11.579Z,5.40
2023-02-21T07:53:40.861Z,7.50
2023-02-21T07:56:09.464Z,4.80
2023-02-21T07:58:37.724Z,7.70
2023-02-21T08:01:07.140Z,7.20
2023-02-21T08:03:35.833Z,5.00
2023-02-21T08:06:05.161Z,4.90
2023-02-21T08:08:33.412Z,4.40
2023-02-21T08:11:02.014Z,4.30
2023-02-21T08:13:30.159Z,6.10
2023-02-21T08:15:58.313Z,6.00
2023-02-21T08:18:26.576Z,7.10
2023-02-21T08:20:57.043Z,4.50
2023-02-21T08:23:25.213Z,5.40
2023-02-21T08:25:53.379Z,4.90
2023-02-21T08:28:21.522Z,6.30
2023-02-21T08:30:49.692Z,3.30
2023-02-21T08:33:17.810Z,6.20
2023-02-21T08:35:46.253Z,6.40
2023-02-21T08:38:14.549Z,5.60
2023-02-21T08:40:42.704Z,4.80
2023-02-21T08:43:11.187Z,6.70
2023-02-21T08:45:39.324Z,5.50
2023-02-21T08:48:07.439Z,5.00
2023-02-21T08:50:35.584Z,18.20
2023-02-21T08:53:03.802Z,4.00
2023-02-21T08:55:31.883Z,7.20
2023-02-21T08:58:00.040Z,5.40
2023-02-21T09:00:28.501Z,7.70
2023-02-21T09:03:02.292Z,4.60
2023-02-21T09:05:32.031Z,6.80
2023-02-21T09:08:02.001Z,5.90
2023-02-21T09:10:36.048Z,16.10
2023-02-21T09:13:05.356Z,13.40
2023-02-21T09:15:34.042Z,9.90
2023-02-21T09:18:02.205Z,8.00
2023-02-21T09:20:30.336Z,5.50
2023-02-21T09:22:58.465Z,6.80
2023-02-21T09:25:27.012Z,6.10
2023-02-21T09:27:55.277Z,4.10
2023-02-21T09:30:27.134Z,4.50
2023-02-21T09:32:58.358Z,4.80
2023-02-21T09:35:26.507Z,5.60
2023-02-21T09:37:54.608Z,4.30
2023-02-21T09:40:51.574Z,7.00
2023-02-21T09:43:31.750Z,5.40
2023-02-21T09:46:07.569Z,8.00
2023-02-21T09:48:35.743Z,6.00
2023-02-21T09:51:09.086Z,6.70
2023-02-21T09:53:42.060Z,7.80
2023-02-21T09:56:34.210Z,3.50
2023-02-21T09:59:02.417Z,6.50
2023-02-21T10:02:16.186Z,4.40
2023-02-21T10:05:30.579Z,3.50
2023-02-21T10:08:15.063Z,6.70
2023-02-21T10:10:56.668Z,4.70
2023-02-21T10:13:53.077Z,5.50
2023-02-21T10:16:32.319Z,5.00
2023-02-21T10:19:31.396Z,4.30
2023-02-21T10:22:02.675Z,4.10
2023-02-21T10:24:31.211Z,5.70
2023-02-21T10:26:59.900Z,6.50
2023-02-21T10:29:47.162Z,6.10
2023-02-21T10:32:15.516Z,4.20
2023-02-21T10:34:47.466Z,4.20
2023-02-21T10:37:24.190Z,4.90
2023-02-21T10:39:59.229Z,5.70
2023-02-21T10:42:50.462Z,4.10
2023-02-21T10:45:20.167Z,5.00
2023-02-21T10:48:03.098Z,2.30
2023-02-21T10:51:04.574Z,4.10
2023-02-21T10:53:42.905Z,2.30
2023-02-21T10:56:20.005Z,3.60
2023-02-21T10:59:28.401Z,6.70
2023-02-21T11:01:58.128Z,4.90
2023-02-21T11:04:34.439Z,3.90
2023-02-21T11:07:13.338Z,5.10
2023-02-21T11:09:51.169Z,4.50
2023-02-21T11:12:31.166Z,4.70
2023-02-21T11:14:59.294Z,4.10
2023-02-21T11:17:29.025Z,3.20
2023-02-21T11:20:19.056Z,3.10
2023-02-21T11:22:49.878Z,4.30
2023-02-21T11:25:31.837Z,5.10
2023-02-21T11:28:06.649Z,3.50
2023-02-21T11:30:39.579Z,4.40
2023-02-21T11:35:47.541Z,5.20
2023-02-21T11:38:36.000Z,3.00
2023-02-21T11:41:21.109Z,3.80
2023-02-21T11:43:55.362Z,4.10
2023-02-21T11:46:45.754Z,4.30
2023-02-21T11:49:32.718Z,4.30
2023-02-21T11:52:09.923Z,4.30
2023-02-21T11:54:39.977Z,6.60
2023-02-21T11:57:29.377Z,4.20
2023-02-21T12:00:41.065Z,3.30
2023-02-21T12:03:43.454Z,3.70
2023-02-21T12:06:26.945Z,5.40
2023-02-21T12:09:22.849Z,5.30
2023-02-21T12:12:11.653Z,4.00
2023-02-21T12:15:17.486Z,4.10
2023-02-21T12:18:22.924Z,7.10
2023-02-21T12:21:47.168Z,4.60
2023-02-21T12:27:30.147Z,4.70
2023-02-21T12:30:10.657Z,4.60
2023-02-21T12:32:59.288Z,3.50
2023-02-21T12:36:17.254Z,3.60
2023-02-21T12:39:14.368Z,5.60
2023-02-21T12:42:22.551Z,4.90
2023-02-21T12:45:07.392Z,4.60
2023-02-21T12:48:12.551Z,4.80
2023-02-21T12:50:45.315Z,5.60
2023-02-21T12:53:24.376Z,3.80
2023-02-21T12:56:15.459Z,6.10
2023-02-21T12:59:14.027Z,3.30
2023-02-21T13:01:49.778Z,4.70
2023-02-21T13:05:01.577Z,6.40
2023-02-21T13:07:38.025Z,5.20
2023-02-21T13:10:28.117Z,6.40
2023-02-21T13:13:18.260Z,5.00
2023-02-21T13:15:49.186Z,7.20
2023-02-21T13:18:26.365Z,4.10
2023-02-21T13:20:58.922Z,5.70
2023-02-21T13:24:23.743Z,4.20
2023-02-21T13:27:41.918Z,4.10
2023-02-21T13:30:21.797Z,3.90
2023-02-21T13:32:54.338Z,4.50
2023-02-21T13:35:38.743Z,3.40
2023-02-21T13:38:11.214Z,4.80
2023-02-21T13:41:10.022Z,5.30
2023-02-21T13:43:48.023Z,5.70
2023-02-21T13:46:29.932Z,4.60
2023-02-21T13:49:56.208Z,5.20
2023-02-21T13:52:32.780Z,5.10
2023-02-21T13:55:15.805Z,3.80
2023-02-21T13:57:57.590Z,4.80
2023-02-21T14:00:25.755Z,6.10
2023-02-21T14:03:03.023Z,8.00
2023-02-21T14:05:47.205Z,4.30
2023-02-21T14:08:33.747Z,3.80
2023-02-21T14:11:05.047Z,3.00
2023-02-21T14:13:39.773Z,4.00
2023-02-21T14:16:07.906Z,2.70
2023-02-21T14:28:56.677Z,61.70
2023-02-21T14:31:56.402Z,30.30
2023-02-21T14:34:52.073Z,26.10
2023-02-21T14:37:41.059Z,16.90
2023-02-21T14:40:12.197Z,6.50
2023-02-21T14:43:05.330Z,7.20
2023-02-21T14:45:50.095Z,9.70
2023-02-21T14:48:53.238Z,11.70
2023-02-21T14:51:50.779Z,8.90
2023-02-21T14:54:37.435Z,9.10
2023-02-21T14:57:34.981Z,4.70
2023-02-21T15:00:50.600Z,7.70
2023-02-21T15:03:29.828Z,5.60
2023-02-21T15:06:14.135Z,4.50
2023-02-21T15:08:46.970Z,4.90
2023-02-21T15:11:37.704Z,6.10
2023-02-21T15:14:25.059Z,4.80
2023-02-21T15:17:14.315Z,4.10
2023-02-21T15:19:42.410Z,4.00
2023-02-21T15:22:25.213Z,4.20
2023-02-21T15:27:47.984Z,5.80
2023-02-21T15:30:23.953Z,4.30
2023-02-21T15:33:01.479Z,6.40
2023-02-21T15:35:36.109Z,6.80
2023-02-21T15:38:15.307Z,4.80
2023-02-21T15:40:44.335Z,5.10
2023-02-21T15:43:37.339Z,3.60
2023-02-21T15:46:08.705Z,4.80
2023-02-21T15:48:37.192Z,5.20
2023-02-21T15:51:09.021Z,4.90
2023-02-21T15:53:37.282Z,5.80
2023-02-21T15:56:28.620Z,7.00
2023-02-21T15:59:25.313Z,9.00
2023-02-21T16:02:11.445Z,8.70
2023-02-21T16:04:43.744Z,8.00
2023-02-21T16:07:37.470Z,18.80
2023-02-21T16:10:14.404Z,8.10
2023-02-21T16:12:45.309Z,9.60
2023-02-21T16:15:13.365Z,6.80
2023-02-21T16:17:43.324Z,8.20
2023-02-21T16:20:26.010Z,8.90
2023-02-21T16:23:26.829Z,4.40
2023-02-21T16:26:20.733Z,8.90
2023-02-21T16:28:48.864Z,8.50
2023-02-21T16:31:26.978Z,5.30
2023-02-21T16:33:55.644Z,9.00
2023-02-21T16:36:31.942Z,7.70
2023-02-21T16:39:00.092Z,9.30
2023-02-21T16:41:28.217Z,8.60
2023-02-21T16:43:56.421Z,6.30
2023-02-21T16:46:29.848Z,7.90
2023-02-21T16:48:59.844Z,11.10
2023-02-21T16:51:33.668Z,11.10
2023-02-21T16:54:03.509Z,11.30
2023-02-21T16:56:31.756Z,9.40
2023-02-21T16:58:59.989Z,37.60
2023-02-21T17:01:32.813Z,43.10
2023-02-21T17:06:32.250Z,13.30
2023-02-21T17:09:01.619Z,34.90
2023-02-21T17:11:29.872Z,19.20
2023-02-21T17:13:58.024Z,12.10
2023-02-21T17:16:26.193Z,8.40
2023-02-21T17:18:54.444Z,7.50
2023-02-21T17:21:22.628Z,7.30
2023-02-21T17:23:50.791Z,6.60
2023-02-21T17:26:18.960Z,6.20
2023-02-21T17:28:47.325Z,5.20
2023-02-21T17:31:18.951Z,5.30
2023-02-21T17:33:47.651Z,8.80
2023-02-21T17:36:24.320Z,6.10
2023-02-21T17:38:52.664Z,9.00
2023-02-21T17:41:21.975Z,7.00
2023-02-21T17:43:50.280Z,4.60
2023-02-21T17:46:21.204Z,6.10
2023-02-21T17:48:49.429Z,5.00
2023-02-21T17:51:24.669Z,6.20
2023-02-21T17:53:53.125Z,4.80
2023-02-21T17:56:27.066Z,7.80
2023-02-21T17:58:55.265Z,11.50
2023-02-21T18:01:23.500Z,11.70
2023-02-21T18:03:51.894Z,5.80
2023-02-21T18:06:21.087Z,4.70
2023-02-21T18:08:49.246Z,6.60
2023-02-21T18:11:18.380Z,4.40
2023-02-21T18:13:47.490Z,5.60
2023-02-21T18:16:16.092Z,3.90
2023-02-21T18:18:45.202Z,3.90
2023-02-21T18:21:13.721Z,5.30
2023-02-21T18:23:46.514Z,6.10
2023-02-21T18:26:15.848Z,5.00
2023-02-21T18:28:44.043Z,10.10
2023-02-21T18:31:17.741Z,9.80
2023-02-21T18:33:46.392Z,10.30
2023-02-21T18:36:14.542Z,10.30
2023-02-21T18:38:42.684Z,8.40
2023-02-21T18:41:17.688Z,6.60
2023-02-21T18:43:46.778Z,8.50
2023-02-21T18:46:19.229Z,7.00
2023-02-21T18:48:49.941Z,8.30
2023-02-21T18:51:20.207Z,6.50
2023-02-21T18:53:49.630Z,7.80
2023-02-21T18:56:20.033Z,5.90
2023-02-21T18:58:49.729Z,5.70
2023-02-21T19:01:21.873Z,5.20
2023-02-21T19:03:51.319Z,7.30
2023-02-21T19:06:21.391Z,5.90
2023-02-21T19:08:50.614Z,7.00
2023-02-21T19:11:18.735Z,8.00
2023-02-21T19:13:49.955Z,6.50
2023-02-21T19:16:19.859Z,6.40
2023-02-21T19:18:51.424Z,8.80
2023-02-21T19:21:19.706Z,10.40
2023-02-21T19:23:47.814Z,7.70
2023-02-21T19:26:16.371Z,6.70
2023-02-21T19:28:44.963Z,7.30
2023-02-21T19:31:17.468Z,7.40
2023-02-21T19:33:45.934Z,8.10
2023-02-21T19:36:14.142Z,4.90
2023-02-21T19:38:42.233Z,5.10
2023-02-21T19:41:10.413Z,5.40
2023-02-21T19:43:38.615Z,5.50
2023-02-21T19:46:06.771Z,5.90
2023-02-21T19:48:34.908Z,6.80
2023-02-21T19:51:03.400Z,8.00
2023-02-21T19:53:31.511Z,7.20
2023-02-21T19:55:59.616Z,7.60
2023-02-21T19:58:27.779Z,12.20
2023-02-21T20:00:55.903Z,11.80
2023-02-21T20:03:24.186Z,8.70
2023-02-21T20:05:52.448Z,7.00
2023-02-21T20:08:20.604Z,7.00
2023-02-21T20:10:48.768Z,8.40
2023-02-21T20:13:16.993Z,7.30
2023-02-21T20:15:45.207Z,9.60
2023-02-21T20:18:14.640Z,7.70
2023-02-21T20:20:43.016Z,8.00
2023-02-21T20:23:11.572Z,10.80
2023-02-21T20:25:39.676Z,7.90
2023-02-21T20:28:07.935Z,8.30
2023-02-21T20:30:36.965Z,7.60
2023-02-21T20:33:06.908Z,7.60
2023-02-21T20:35:35.174Z,5.80
2023-02-21T20:38:05.946Z,7.20
2023-02-21T20:40:34.673Z,7.90
2023-02-21T20:43:03.225Z,6.90
2023-02-21T20:45:31.370Z,11.40
2023-02-21T20:47:59.515Z,8.80
2023-02-21T20:50:27.720Z,7.70
2023-02-21T20:52:55.823Z,10.70
2023-02-21T20:55:25.263Z,11.50
2023-02-21T20:57:53.760Z,11.20
2023-02-21T21:00:23.708Z,6.50
2023-02-21T21:02:53.109Z,7.50
2023-02-21T21:05:21.592Z,8.00
2023-02-21T21:07:49.766Z,9.30
2023-02-21T21:10:19.108Z,8.50
2023-02-21T21:12:49.571Z,8.70
2023-02-21T21:15:20.135Z,8.80
2023-02-21T21:17:48.808Z,7.90
2023-02-21T21:20:22.215Z,6.80
2023-02-21T21:22:50.657Z,10.10
2023-02-21T21:25:22.761Z,7.80
2023-02-21T21:27:52.023Z,8.60
2023-02-21T21:30:22.940Z,7.50
2023-02-21T21:32:51.258Z,6.00
2023-02-21T21:35:20.845Z,5.80
2023-02-21T21:37:49.769Z,6.60
2023-02-21T21:40:18.030Z,6.50
2023-02-21T21:42:49.926Z,6.00
2023-02-21T21:45:27.381Z,6.00
2023-02-21T21:48:00.841Z,6.60
2023-02-21T21:50:28.986Z,7.70
2023-02-21T21:52:58.508Z,4.40
2023-02-21T21:55:30.076Z,6.70
2023-02-21T21:57:58.877Z,7.10
2023-02-21T22:00:30.802Z,5.10
2023-02-21T22:03:01.873Z,6.90
2023-02-21T22:05:32.281Z,9.20
2023-02-21T22:08:00.510Z,7.60
2023-02-21T22:10:29.780Z,8.10
2023-02-21T22:13:00.575Z,8.80
2023-02-21T22:15:30.106Z,6.20
2023-02-21T22:18:02.099Z,8.70
2023-02-21T22:20:31.226Z,8.80
2023-02-21T22:22:59.935Z,11.10
2023-02-21T22:25:30.604Z,8.80
2023-02-21T22:28:02.762Z,8.70
2023-02-21T22:30:31.690Z,8.70
2023-02-21T22:32:59.921Z,9.20
2023-02-21T22:35:28.627Z,8.20
2023-02-21T22:38:01.945Z,7.30
2023-02-21T22:40:35.522Z,8.30
2023-02-21T22:43:06.382Z,8.80
2023-02-21T22:45:36.003Z,6.20
2023-02-21T22:48:07.522Z,7.30
2023-02-21T22:50:37.669Z,6.20
2023-02-21T22:53:09.401Z,7.70
2023-02-21T22:55:37.923Z,5.80
2023-02-21T22:58:09.496Z,6.60
2023-02-21T23:00:38.301Z,5.60
2023-02-21T23:03:15.570Z,6.60
2023-02-21T23:05:47.604Z,8.20
2023-02-21T23:08:22.845Z,5.80
2023-02-21T23:10:51.650Z,7.10
2023-02-21T23:13:24.111Z,6.60
2023-02-21T23:15:55.966Z,8.70
2023-02-21T23:18:26.170Z,7.80
2023-02-21T23:20:57.994Z,12.00
2023-02-21T23:23:29.028Z,10.80
2023-02-21T23:25:59.512Z,8.50
2023-02-21T23:28:30.561Z,9.80
2023-02-21T23:30:58.720Z,9.10
2023-02-21T23:33:33.934Z,10.50
2023-02-21T23:36:04.811Z,8.60
2023-02-21T23:38:38.624Z,7.80
2023-02-21T23:41:10.762Z,6.10
2023-02-21T23:43:40.056Z,8.80
2023-02-21T23:46:09.171Z,8.50
2023-02-21T23:48:37.614Z,7.10
2023-02-21T23:51:08.214Z,6.60
2023-02-21T23:53:37.136Z,7.60
2023-02-21T23:56:05.896Z,6.80
2023-02-21T23:58:34.246Z,6.70
